createdAt,value
2018-12-04T00:00:23.285Z,59.96
2018-12-04T00:01:23.526Z,60.12
2018-12-04T00:02:23.526Z,62.53
2018-12-04T00:03:23.235Z,62.02
2018-12-04T00:04:23.473Z,63.17
2018-12-04T00:05:23.452Z,63.73
2018-12-04T00:06:23.431Z,63.83
2018-12-04T00:07:23.419Z,63.92
2018-12-04T00:08:23.394Z,63.92
2018-12-04T00:09:23.382Z,64.02
2018-12-04T00:10:23.364Z,63.92
2018-12-04T00:11:23.339Z,62.88
2018-12-04T00:12:23.070Z,62.21
2018-12-04T00:13:23.305Z,61.45
2018-12-04T00:14:23.035Z,60.78
2018-12-04T00:15:23.014Z,60.69
2018-12-04T00:16:22.993Z,60.6
2018-12-04T00:17:22.978Z,60.41
2018-12-04T00:18:22.959Z,60.5
2018-12-04T00:19:22.938Z,60.6
2018-12-04T00:20:22.928Z,61.26
2018-12-04T00:21:22.912Z,60.97
2018-12-04T00:22:23.144Z,60.97
2018-12-04T00:23:22.871Z,61.45
2018-12-04T00:24:23.107Z,61.35
2018-12-04T00:25:23.085Z,61.55
2018-12-04T00:26:22.810Z,61.45
2018-12-04T00:27:23.009Z,60.6
2018-12-04T00:28:23.033Z,60.31
2018-12-04T00:29:23.016Z,59.83
2018-12-04T00:30:22.988Z,59.83
2018-12-04T00:31:22.723Z,60.41
2018-12-04T00:32:22.958Z,59.83
2018-12-04T00:33:22.935Z,59.55
2018-12-04T00:34:22.672Z,59.27
2018-12-04T00:35:22.912Z,59.45
2018-12-04T00:36:22.636Z,59.55
2018-12-04T00:37:22.662Z,59.17
2018-12-04T00:38:22.845Z,59.36
2018-12-04T00:39:22.831Z,59.45
2018-12-04T00:40:22.555Z,59.27
2018-12-04T00:41:22.787Z,60.02
2018-12-04T00:42:22.513Z,59.64
2018-12-04T00:43:22.760Z,58.88
2018-12-04T00:44:22.735Z,59.07
2018-12-04T00:45:22.461Z,58.98
2018-12-04T00:46:22.699Z,59.36
2018-12-04T00:47:22.678Z,58.69
2018-12-04T00:48:22.661Z,58.12
2018-12-04T00:49:22.643Z,58.4
2018-12-04T00:50:22.368Z,59.07
2018-12-04T00:51:22.350Z,58.98
2018-12-04T00:52:22.633Z,58.88
2018-12-04T00:53:22.591Z,58.5
2018-12-04T00:54:22.549Z,58.09
2018-12-04T00:55:22.533Z,58.69
2018-12-04T00:56:22.535Z,58.79
2018-12-04T00:57:22.498Z,58.69
2018-12-04T00:58:22.474Z,58.76
2018-12-04T00:59:22.205Z,59.23
2018-12-04T01:00:22.483Z,59.05
2018-12-04T01:01:22.426Z,59.17
2018-12-04T01:02:22.150Z,59.61
2018-12-04T01:03:22.382Z,59.71
2018-12-04T01:04:22.365Z,59.9
2018-12-04T01:05:22.094Z,59.33
2018-12-04T01:06:22.326Z,59.83
2018-12-04T01:07:22.052Z,60.38
2018-12-04T01:08:22.291Z,60.18
2018-12-04T01:09:22.273Z,60.69
2018-12-04T01:10:22.253Z,60.28
2018-12-04T01:11:22.235Z,60.69
2018-12-04T01:12:22.223Z,60.94
2018-12-04T01:13:22.198Z,61.52
2018-12-04T01:14:22.179Z,62.3
2018-12-04T01:15:21.909Z,62.46
2018-12-04T01:16:22.147Z,62.46
2018-12-04T01:17:22.149Z,61.8
2018-12-04T01:18:22.155Z,61.42
2018-12-04T01:19:21.847Z,62.08
2018-12-04T01:20:22.068Z,62.12
2018-12-04T01:21:22.048Z,62.08
2018-12-04T01:22:21.783Z,61.99
2018-12-04T01:23:22.008Z,61.32
2018-12-04T01:24:21.735Z,63.07
2018-12-04T01:25:22.174Z,63.04
2018-12-04T01:26:21.977Z,62.46
2018-12-04T01:27:21.940Z,62.56
2018-12-04T01:28:21.661Z,62.85
2018-12-04T01:29:21.899Z,62.4
2018-12-04T01:30:21.875Z,62.08
2018-12-04T01:31:21.860Z,62.08
2018-12-04T01:32:21.605Z,62.21
2018-12-04T01:33:21.839Z,61.23
2018-12-04T01:34:21.805Z,61.35
2018-12-04T01:35:21.529Z,60.85
2018-12-04T01:36:21.508Z,61.45
2018-12-04T01:37:21.750Z,63.32
2018-12-04T01:38:21.479Z,63.51
2018-12-04T01:39:21.455Z,63.13
2018-12-04T01:40:21.434Z,63.13
2018-12-04T01:41:21.419Z,63.32
2018-12-04T01:42:21.653Z,62.85
2018-12-04T01:43:21.382Z,63.13
2018-12-04T01:44:21.622Z,62.69
2018-12-04T01:45:21.613Z,62.88
2018-12-04T01:46:21.573Z,63.23
2018-12-04T01:47:21.572Z,62.97
2018-12-04T01:48:21.285Z,62.46
2018-12-04T01:49:21.265Z,62.59
2018-12-04T01:50:21.253Z,62.65
2018-12-04T01:51:21.229Z,62.46
2018-12-04T01:52:21.466Z,61.8
2018-12-04T01:53:21.191Z,62.37
2018-12-04T01:54:21.179Z,62.18
2018-12-04T01:55:21.412Z,62.3
2018-12-04T01:56:21.391Z,62.27
2018-12-04T01:57:21.381Z,62.18
2018-12-04T01:58:21.352Z,62.46
2018-12-04T01:59:21.330Z,62.85
2018-12-04T02:00:21.314Z,62.46
2018-12-04T02:01:21.048Z,63.04
2018-12-04T02:02:21.039Z,63.13
2018-12-04T02:03:21.260Z,62.56
2018-12-04T02:04:20.985Z,63.13
2018-12-04T02:05:21.221Z,62.75
2018-12-04T02:06:21.203Z,62.85
2018-12-04T02:07:21.191Z,62.85
2018-12-04T02:08:20.915Z,62.85
2018-12-04T02:09:21.142Z,62.65
2018-12-04T02:10:20.869Z,62.85
2018-12-04T02:11:21.104Z,62.75
2018-12-04T02:12:21.158Z,62.65
2018-12-04T02:13:21.109Z,62.08
2018-12-04T02:14:21.061Z,62.46
2018-12-04T02:15:21.031Z,62.27
2018-12-04T02:16:20.760Z,62.27
2018-12-04T02:17:20.736Z,62.18
2018-12-04T02:18:20.724Z,62.37
2018-12-04T02:19:20.700Z,62.37
2018-12-04T02:20:20.935Z,62.85
2018-12-04T02:21:20.921Z,62.75
2018-12-04T02:22:20.648Z,62.08
2018-12-04T02:23:20.916Z,62.27
2018-12-04T02:24:20.617Z,61.61
2018-12-04T02:25:20.593Z,61.23
2018-12-04T02:26:20.578Z,60.94
2018-12-04T02:27:20.801Z,61.04
2018-12-04T02:28:20.539Z,61.04
2018-12-04T02:29:20.816Z,61.32
2018-12-04T02:30:20.748Z,61.52
2018-12-04T02:31:20.730Z,62.65
2018-12-04T02:32:20.455Z,61.99
2018-12-04T02:33:20.693Z,61.61
2018-12-04T02:34:20.445Z,62.75
2018-12-04T02:35:20.654Z,62.85
2018-12-04T02:36:20.421Z,63.13
2018-12-04T02:37:20.359Z,63.79
2018-12-04T02:38:20.597Z,63.42
2018-12-04T02:39:20.333Z,63.23
2018-12-04T02:40:20.572Z,63.23
2018-12-04T02:41:20.591Z,64.08
2018-12-04T02:42:20.524Z,64.56
2018-12-04T02:43:20.509Z,64.84
2018-12-04T02:44:20.588Z,64.84
2018-12-04T02:45:20.511Z,67.03
2018-12-04T02:46:20.444Z,67.13
2018-12-04T02:47:20.172Z,67.32
2018-12-04T02:48:20.410Z,66.84
2018-12-04T02:49:20.387Z,66.94
2018-12-04T02:50:20.368Z,67.22
2018-12-04T02:51:20.356Z,66.84
2018-12-04T02:52:20.333Z,67.03
2018-12-04T02:53:20.320Z,67.03
2018-12-04T02:54:20.311Z,66.74
2018-12-04T02:55:20.031Z,66.94
2018-12-04T02:56:20.250Z,67.32
2018-12-04T02:57:20.241Z,66.65
2018-12-04T02:58:20.216Z,66.36
2018-12-04T02:59:20.246Z,67.13
2018-12-04T03:00:20.176Z,67.98
2018-12-04T03:01:19.910Z,68.55
2018-12-04T03:02:20.140Z,69.02
2018-12-04T03:03:19.870Z,69.21
2018-12-04T03:04:20.100Z,69.31
2018-12-04T03:05:19.825Z,70.07
2018-12-04T03:06:19.810Z,71.31
2018-12-04T03:07:20.040Z,70.74
2018-12-04T03:08:20.029Z,71.41
2018-12-04T03:09:19.753Z,71.59
2018-12-04T03:10:19.734Z,71.97
2018-12-04T03:11:19.711Z,71.22
2018-12-04T03:12:19.966Z,71.5
2018-12-04T03:13:19.931Z,72.64
2018-12-04T03:14:19.912Z,71.88
2018-12-04T03:15:19.889Z,72.55
2018-12-04T03:16:19.874Z,72.74
2018-12-04T03:17:19.598Z,72.16
2018-12-04T03:18:19.828Z,72.45
2018-12-04T03:19:19.558Z,72.55
2018-12-04T03:20:19.792Z,72.83
2018-12-04T03:21:19.521Z,72.26
2018-12-04T03:22:19.506Z,72.35
2018-12-04T03:23:19.486Z,72.07
2018-12-04T03:24:19.719Z,72.26
2018-12-04T03:25:19.903Z,72.55
2018-12-04T03:26:19.430Z,72.16
2018-12-04T03:27:19.660Z,72.07
2018-12-04T03:28:19.647Z,71.18
2018-12-04T03:29:19.623Z,70.99
2018-12-04T03:30:19.672Z,70.74
2018-12-04T03:31:19.591Z,70.89
2018-12-04T03:32:19.570Z,70.99
2018-12-04T03:33:19.548Z,70.89
2018-12-04T03:34:19.528Z,70.89
2018-12-04T03:35:19.523Z,72.03
2018-12-04T03:36:19.492Z,73.18
2018-12-04T03:37:19.218Z,76.03
2018-12-04T03:38:19.446Z,83.06
2018-12-04T03:39:19.433Z,84.86
2018-12-04T03:40:19.509Z,90
2018-12-04T03:41:19.139Z,99.59
2018-12-04T03:42:19.373Z,99.99
2018-12-04T03:43:19.099Z,99.69
2018-12-04T03:44:19.074Z,99.99
2018-12-04T03:45:19.316Z,99.99
2018-12-04T03:46:19.294Z,99.99
2018-12-04T03:47:19.274Z,99.99
2018-12-04T03:48:19.255Z,99.99
2018-12-04T03:49:18.982Z,99.99
2018-12-04T03:50:19.224Z,99.99
2018-12-04T03:51:18.949Z,97.88
2018-12-04T03:52:19.176Z,96.36
2018-12-04T03:53:19.171Z,94.65
2018-12-04T03:54:19.145Z,93.04
2018-12-04T03:55:19.166Z,91.33
2018-12-04T03:56:18.841Z,89.33
2018-12-04T03:57:19.101Z,87.24
2018-12-04T03:58:18.807Z,86.1
2018-12-04T03:59:19.059Z,83.72
2018-12-04T04:00:19.032Z,81.54
2018-12-04T04:01:18.747Z,81.35
2018-12-04T04:02:18.983Z,80.4
2018-12-04T04:03:18.712Z,80.77
2018-12-04T04:04:18.942Z,79.44
2018-12-04T04:05:18.944Z,78.88
2018-12-04T04:06:18.656Z,78.11
2018-12-04T04:07:18.888Z,77.73
2018-12-04T04:08:18.613Z,76.69
2018-12-04T04:09:18.598Z,76.31
2018-12-04T04:10:19.771Z,75.17
2018-12-04T04:11:18.816Z,75.36
2018-12-04T04:12:18.793Z,74.6
2018-12-04T04:13:18.775Z,74.31
2018-12-04T04:14:18.754Z,73.74
2018-12-04T04:15:18.491Z,73.46
2018-12-04T04:16:18.465Z,73.65
2018-12-04T04:17:18.694Z,73.46
2018-12-04T04:18:18.673Z,72.51
2018-12-04T04:19:18.401Z,72.41
2018-12-04T04:20:18.635Z,72.41
2018-12-04T04:21:18.359Z,72.03
2018-12-04T04:22:18.604Z,72.22
2018-12-04T04:23:18.358Z,72.32
2018-12-04T04:24:18.565Z,72.32
2018-12-04T04:25:18.286Z,72.22
2018-12-04T04:26:18.523Z,71.66
2018-12-04T04:27:18.256Z,71.27
2018-12-04T04:28:18.225Z,71.18
2018-12-04T04:29:18.459Z,71.18
2018-12-04T04:30:18.438Z,71.18
2018-12-04T04:31:18.166Z,70.79
2018-12-04T04:32:18.398Z,70.51
2018-12-04T04:33:18.383Z,70.51
2018-12-04T04:34:18.154Z,70.51
2018-12-04T04:35:18.347Z,70.51
2018-12-04T04:36:18.072Z,70.13
2018-12-04T04:37:18.057Z,70.13
2018-12-04T04:38:18.291Z,69.56
2018-12-04T04:39:18.014Z,69.27
2018-12-04T04:40:18.009Z,69.46
2018-12-04T04:41:17.968Z,69.27
2018-12-04T04:42:18.205Z,68.99
2018-12-04T04:43:18.202Z,68.8
2018-12-04T04:44:18.172Z,68.71
2018-12-04T04:45:18.153Z,69.37
2018-12-04T04:46:18.137Z,69.46
2018-12-04T04:47:17.861Z,68.33
2018-12-04T04:48:18.091Z,69.09
2018-12-04T04:49:17.824Z,68.77
2018-12-04T04:50:18.050Z,69.15
2018-12-04T04:51:18.039Z,69.34
2018-12-04T04:52:18.014Z,69.24
2018-12-04T04:53:17.992Z,69.34
2018-12-04T04:54:17.725Z,69.24
2018-12-04T04:55:17.979Z,69.43
2018-12-04T04:56:17.689Z,68.77
2018-12-04T04:57:17.915Z,69.15
2018-12-04T04:58:17.901Z,68.58
2018-12-04T04:59:17.902Z,68.58
2018-12-04T05:00:17.853Z,68.58
2018-12-04T05:01:17.833Z,68.58
2018-12-04T05:02:17.841Z,68.19
2018-12-04T05:03:17.547Z,68.77
2018-12-04T05:04:17.521Z,68.48
2018-12-04T05:05:17.506Z,67.63
2018-12-04T05:06:17.737Z,67.25
2018-12-04T05:07:17.466Z,67.44
2018-12-04T05:08:17.709Z,67.63
2018-12-04T05:09:17.681Z,68.01
2018-12-04T05:10:17.663Z,68.01
2018-12-04T05:11:17.389Z,67.91
2018-12-04T05:12:17.363Z,67.63
2018-12-04T05:13:17.604Z,67.82
2018-12-04T05:14:17.582Z,67.44
2018-12-04T05:15:17.578Z,67.72
2018-12-04T05:16:17.286Z,67.06
2018-12-04T05:17:17.527Z,66.55
2018-12-04T05:18:17.507Z,67.06
2018-12-04T05:19:17.486Z,66.67
2018-12-04T05:20:17.462Z,66.58
2018-12-04T05:21:17.185Z,66.55
2018-12-04T05:22:17.421Z,66.64
2018-12-04T05:23:17.144Z,66.93
2018-12-04T05:24:17.382Z,66.55
2018-12-04T05:25:17.138Z,66.17
2018-12-04T05:26:17.541Z,66.46
2018-12-04T05:27:17.326Z,66.55
2018-12-04T05:28:17.301Z,66.17
2018-12-04T05:29:17.285Z,65.98
2018-12-04T05:30:17.267Z,66.46
2018-12-04T05:31:17.235Z,66.46
2018-12-04T05:32:17.219Z,66.08
2018-12-04T05:33:17.199Z,66.74
2018-12-04T05:34:17.185Z,66.17
2018-12-04T05:35:17.157Z,66.46
2018-12-04T05:36:16.894Z,65.98
2018-12-04T05:37:16.864Z,66.83
2018-12-04T05:38:17.135Z,66.46
2018-12-04T05:39:17.088Z,66.46
2018-12-04T05:40:17.059Z,66.74
2018-12-04T05:41:17.040Z,65.98
2018-12-04T05:42:17.019Z,65.79
2018-12-04T05:43:16.746Z,65.69
2018-12-04T05:44:16.972Z,65.79
2018-12-04T05:45:16.701Z,65.98
2018-12-04T05:46:16.680Z,65.98
2018-12-04T05:47:16.914Z,66.08
2018-12-04T05:48:16.641Z,65.98
2018-12-04T05:49:16.627Z,65.79
2018-12-04T05:50:16.857Z,65.69
2018-12-04T05:51:16.578Z,65.98
2018-12-04T05:52:16.828Z,66.27
2018-12-04T05:53:16.799Z,66.74
2018-12-04T05:54:16.516Z,66.08
2018-12-04T05:55:16.767Z,66.74
2018-12-04T05:56:16.738Z,66.27
2018-12-04T05:57:16.456Z,66.36
2018-12-04T05:58:16.699Z,66.27
2018-12-04T05:59:16.417Z,66.74
2018-12-04T06:00:16.657Z,66.36
2018-12-04T06:01:16.629Z,66.36
2018-12-04T06:02:16.615Z,66.64
2018-12-04T06:03:16.592Z,67.12
2018-12-04T06:04:16.573Z,66.83
2018-12-04T06:05:16.293Z,66.93
2018-12-04T06:06:16.528Z,66.93
2018-12-04T06:07:16.515Z,66.93
2018-12-04T06:08:16.232Z,66.74
2018-12-04T06:09:16.214Z,66.74
2018-12-04T06:10:16.455Z,66.71
2018-12-04T06:11:16.427Z,66.61
2018-12-04T06:12:16.160Z,66.61
2018-12-04T06:13:16.386Z,66.99
2018-12-04T06:14:16.365Z,66.52
2018-12-04T06:15:16.347Z,66.64
2018-12-04T06:16:16.070Z,66.52
2018-12-04T06:17:16.053Z,66.52
2018-12-04T06:18:16.281Z,66.61
2018-12-04T06:19:16.260Z,66.46
2018-12-04T06:20:16.242Z,66.46
2018-12-04T06:21:16.225Z,66.52
2018-12-04T06:22:16.203Z,66.33
2018-12-04T06:23:15.928Z,66.23
2018-12-04T06:24:15.909Z,65.95
2018-12-04T06:25:16.169Z,66.8
2018-12-04T06:26:16.122Z,66.42
2018-12-04T06:27:16.102Z,66.89
2018-12-04T06:28:15.826Z,66.8
2018-12-04T06:29:16.057Z,66.61
2018-12-04T06:30:15.786Z,66.52
2018-12-04T06:31:16.016Z,66.52
2018-12-04T06:32:15.744Z,66.61
2018-12-04T06:33:15.725Z,66.52
2018-12-04T06:34:15.701Z,66.8
2018-12-04T06:35:15.682Z,66.71
2018-12-04T06:36:15.916Z,66.52
2018-12-04T06:37:15.893Z,67.27
2018-12-04T06:38:15.618Z,66.42
2018-12-04T06:39:15.861Z,66.61
2018-12-04T06:40:15.833Z,66.42
2018-12-04T06:41:15.813Z,67.56
2018-12-04T06:42:15.536Z,67.18
2018-12-04T06:43:15.772Z,67.18
2018-12-04T06:44:15.748Z,67.27
2018-12-04T06:45:15.729Z,66.71
2018-12-04T06:46:15.458Z,66.42
2018-12-04T06:47:15.692Z,66.99
2018-12-04T06:48:15.676Z,66.99
2018-12-04T06:49:15.394Z,66.8
2018-12-04T06:50:15.639Z,66.61
2018-12-04T06:51:15.606Z,66.8
2018-12-04T06:52:15.589Z,66.61
2018-12-04T06:53:15.564Z,66.71
2018-12-04T06:54:15.289Z,66.61
2018-12-04T06:55:15.526Z,66.8
2018-12-04T06:56:15.503Z,66.8
2018-12-04T06:57:16.453Z,66.71
2018-12-04T06:58:15.222Z,66.71
2018-12-04T06:59:15.478Z,66.42
2018-12-04T07:00:15.221Z,66.71
2018-12-04T07:01:15.397Z,66.71
2018-12-04T07:02:15.382Z,66.99
2018-12-04T07:03:15.103Z,66.61
2018-12-04T07:04:15.338Z,66.61
2018-12-04T07:05:15.322Z,67.27
2018-12-04T07:06:15.041Z,67.46
2018-12-04T07:07:15.280Z,66.52
2018-12-04T07:08:15.255Z,66.71
2018-12-04T07:09:14.988Z,66.8
2018-12-04T07:10:15.211Z,66.89
2018-12-04T07:11:14.938Z,66.8
2018-12-04T07:12:15.176Z,66.61
2018-12-04T07:13:14.894Z,66.61
2018-12-04T07:14:14.876Z,66.8
2018-12-04T07:15:14.858Z,66.71
2018-12-04T07:16:15.090Z,66.71
2018-12-04T07:17:15.072Z,66.89
2018-12-04T07:18:15.051Z,66.8
2018-12-04T07:19:14.789Z,66.8
2018-12-04T07:20:15.005Z,66.8
2018-12-04T07:21:14.734Z,67.08
2018-12-04T07:22:14.712Z,66.42
2018-12-04T07:23:14.695Z,66.14
2018-12-04T07:24:14.677Z,66.23
2018-12-04T07:25:14.649Z,66.14
2018-12-04T07:26:15.084Z,66.14
2018-12-04T07:27:14.862Z,66.14
2018-12-04T07:28:14.589Z,66.61
2018-12-04T07:29:14.820Z,66.04
2018-12-04T07:30:14.545Z,66.14
2018-12-04T07:31:14.526Z,66.42
2018-12-04T07:32:14.756Z,66.04
2018-12-04T07:33:14.492Z,66.42
2018-12-04T07:34:14.459Z,66.04
2018-12-04T07:35:14.439Z,66.42
2018-12-04T07:36:14.677Z,66.14
2018-12-04T07:37:14.654Z,66.52
2018-12-04T07:38:14.630Z,66.71
2018-12-04T07:39:14.610Z,66.71
2018-12-04T07:40:14.590Z,66.23
2018-12-04T07:41:14.569Z,66.14
2018-12-04T07:42:14.553Z,66.23
2018-12-04T07:43:14.274Z,66.89
2018-12-04T07:44:14.259Z,66.89
2018-12-04T07:45:14.491Z,66.89
2018-12-04T07:46:14.477Z,66.61
2018-12-04T07:47:14.451Z,66.52
2018-12-04T07:48:14.802Z,66.61
2018-12-04T07:49:14.404Z,66.61
2018-12-04T07:50:14.129Z,66.8
2018-12-04T07:51:14.126Z,66.71
2018-12-04T07:52:14.351Z,66.61
2018-12-04T07:53:14.326Z,66.71
2018-12-04T07:54:14.302Z,66.71
2018-12-04T07:55:14.285Z,66.42
2018-12-04T07:56:14.260Z,66.61
2018-12-04T07:57:13.986Z,66.99
2018-12-04T07:58:13.966Z,67.18
2018-12-04T07:59:14.199Z,67.37
2018-12-04T08:00:13.923Z,67.18
2018-12-04T08:01:14.160Z,67.18
2018-12-04T08:02:14.147Z,67.18
2018-12-04T08:03:14.114Z,67.18
2018-12-04T08:04:14.405Z,67.18
2018-12-04T08:05:14.072Z,67.18
2018-12-04T08:06:14.050Z,67.46
2018-12-04T08:07:13.786Z,67.37
2018-12-04T08:08:14.017Z,67.75
2018-12-04T08:09:13.994Z,67.85
2018-12-04T08:10:13.973Z,67.56
2018-12-04T08:11:13.949Z,67.46
2018-12-04T08:12:13.929Z,67.75
2018-12-04T08:13:13.906Z,68.04
2018-12-04T08:14:13.889Z,68.04
2018-12-04T08:15:13.868Z,68.23
2018-12-04T08:16:13.843Z,68.04
2018-12-04T08:17:13.569Z,68.23
2018-12-04T08:18:13.808Z,67.85
2018-12-04T08:19:13.783Z,67.85
2018-12-04T08:20:13.763Z,67.75
2018-12-04T08:21:13.750Z,67.65
2018-12-04T08:22:13.727Z,67.65
2018-12-04T08:23:13.447Z,68.04
2018-12-04T08:24:13.687Z,67.94
2018-12-04T08:25:13.656Z,68.7
2018-12-04T08:26:13.383Z,68.23
2018-12-04T08:27:13.627Z,68.6
2018-12-04T08:28:13.596Z,68.41
2018-12-04T08:29:13.321Z,68.04
2018-12-04T08:30:13.302Z,68.41
2018-12-04T08:31:13.532Z,68.32
2018-12-04T08:32:13.516Z,68.32
2018-12-04T08:33:13.508Z,68.04
2018-12-04T08:34:13.217Z,67.94
2018-12-04T08:35:13.459Z,68.13
2018-12-04T08:36:13.431Z,68.13
2018-12-04T08:37:13.414Z,68.51
2018-12-04T08:38:13.392Z,68.23
2018-12-04T08:39:15.407Z,68.41
2018-12-04T08:40:13.097Z,68.32
2018-12-04T08:41:13.332Z,68.23
2018-12-04T08:42:13.310Z,68.6
2018-12-04T08:43:13.291Z,68.41
2018-12-04T08:44:13.274Z,68.6
2018-12-04T08:45:13.020Z,68.89
2018-12-04T08:46:13.226Z,68.79
2018-12-04T08:47:13.208Z,68.79
2018-12-04T08:48:12.929Z,69.17
2018-12-04T08:49:12.912Z,68.41
2018-12-04T08:50:12.887Z,68.98
2018-12-04T08:51:13.123Z,69.08
2018-12-04T08:52:12.849Z,68.79
2018-12-04T08:53:13.086Z,69.02
2018-12-04T08:54:12.806Z,68.92
2018-12-04T08:55:12.788Z,68.92
2018-12-04T08:56:13.034Z,69.3
2018-12-04T08:57:13.060Z,69.11
2018-12-04T08:58:12.727Z,69.4
2018-12-04T08:59:12.963Z,68.92
2018-12-04T09:00:12.953Z,69.21
2018-12-04T09:01:12.670Z,68.92
2018-12-04T09:02:12.900Z,69.21
2018-12-04T09:03:12.883Z,69.59
2018-12-04T09:04:12.869Z,69.87
2018-12-04T09:05:12.925Z,69.59
2018-12-04T09:06:12.564Z,70.15
2018-12-04T09:07:12.802Z,69.96
2018-12-04T09:08:12.781Z,70.15
2018-12-04T09:09:12.761Z,70.25
2018-12-04T09:10:12.485Z,70.54
2018-12-04T09:11:12.714Z,71.01
2018-12-04T09:12:12.444Z,70.92
2018-12-04T09:13:12.427Z,71.11
2018-12-04T09:14:12.658Z,72.06
2018-12-04T09:15:12.640Z,72.34
2018-12-04T09:16:12.619Z,72.34
2018-12-04T09:17:12.600Z,73.19
2018-12-04T09:18:12.609Z,73.1
2018-12-04T09:19:12.575Z,73.38
2018-12-04T09:20:12.344Z,73.48
2018-12-04T09:21:12.358Z,74.05
2018-12-04T09:22:12.637Z,74.43
2018-12-04T09:23:12.276Z,75.13
2018-12-04T09:24:12.477Z,75.32
2018-12-04T09:25:12.285Z,76.46
2018-12-04T09:26:12.710Z,77.41
2018-12-04T09:27:12.174Z,78.83
2018-12-04T09:28:12.247Z,80.64
2018-12-04T09:29:12.409Z,82.1
2018-12-04T09:30:12.358Z,82.82
2018-12-04T09:31:12.066Z,84.29
2018-12-04T09:32:12.322Z,85.39
2018-12-04T09:33:12.287Z,87.34
2018-12-04T09:34:12.259Z,89.42
2018-12-04T09:35:12.241Z,87.81
2018-12-04T09:36:11.964Z,86.86
2018-12-04T09:37:11.951Z,86.57
2018-12-04T09:38:12.185Z,87.9
2018-12-04T09:39:12.164Z,89.42
2018-12-04T09:40:12.142Z,96.55
2018-12-04T09:41:11.876Z,95.51
2018-12-04T09:42:12.103Z,94.03
2018-12-04T09:43:12.096Z,95.46
2018-12-04T09:44:11.817Z,96.79
2018-12-04T09:45:12.056Z,98.97
2018-12-04T09:46:12.028Z,99.99
2018-12-04T09:47:12.009Z,99.99
2018-12-04T09:48:11.996Z,99.99
2018-12-04T09:49:11.978Z,99.99
2018-12-04T09:50:11.962Z,99.99
2018-12-04T09:51:11.690Z,99.99
2018-12-04T09:52:11.937Z,99.99
2018-12-04T09:53:11.906Z,99.99
2018-12-04T09:54:11.888Z,99.99
2018-12-04T09:55:11.873Z,99.99
2018-12-04T09:56:11.592Z,99.99
2018-12-04T09:57:11.837Z,99.99
2018-12-04T09:58:11.868Z,99.99
2018-12-04T09:59:11.640Z,99.99
2018-12-04T10:00:11.791Z,99.99
2018-12-04T10:01:11.767Z,99.99
2018-12-04T10:02:11.749Z,99.99
2018-12-04T10:03:11.478Z,99.99
2018-12-04T10:04:11.734Z,99.99
2018-12-04T10:05:11.443Z,99.99
2018-12-04T10:06:11.684Z,99.99
2018-12-04T10:07:11.680Z,99.99
2018-12-04T10:08:11.652Z,99.99
2018-12-04T10:09:11.641Z,99.99
2018-12-04T10:10:11.628Z,99.99
2018-12-04T10:11:11.615Z,99.99
2018-12-04T10:12:11.591Z,99.99
2018-12-04T10:13:11.318Z,99.99
2018-12-04T10:14:11.562Z,99.99
2018-12-04T10:15:11.549Z,99.99
2018-12-04T10:16:11.530Z,99.99
2018-12-04T10:17:11.517Z,99.99
2018-12-04T10:18:11.248Z,99.99
2018-12-04T10:19:11.226Z,99.99
2018-12-04T10:20:11.219Z,99.99
2018-12-04T10:21:11.455Z,99.99
2018-12-04T10:22:11.188Z,99.99
2018-12-04T10:23:11.430Z,99.99
2018-12-04T10:24:11.158Z,99.99
2018-12-04T10:25:11.412Z,99.99
2018-12-04T10:26:11.130Z,99.99
2018-12-04T10:27:11.367Z,99.99
2018-12-04T10:28:11.353Z,99.99
2018-12-04T10:29:11.089Z,99.99
2018-12-04T10:30:11.339Z,99.99
2018-12-04T10:31:11.536Z,99.99
2018-12-04T10:32:11.058Z,99.99
2018-12-04T10:33:11.297Z,99.99
2018-12-04T10:34:11.273Z,99.99
2018-12-04T10:35:11.256Z,99.99
2018-12-04T10:36:11.478Z,99.99
2018-12-04T10:37:11.229Z,99.99
2018-12-04T10:38:11.219Z,99.99
2018-12-04T10:39:11.222Z,99.99
2018-12-04T10:40:10.933Z,99.99
2018-12-04T10:41:11.169Z,99.99
2018-12-04T10:42:11.159Z,99.99
2018-12-04T10:43:11.158Z,99.99
2018-12-04T10:44:10.872Z,99.99
2018-12-04T10:45:10.858Z,99.99
2018-12-04T10:46:11.116Z,99.99
2018-12-04T10:47:11.094Z,99.99
2018-12-04T10:48:11.090Z,99.99
2018-12-04T10:49:11.062Z,99.99
2018-12-04T10:50:10.790Z,99.99
2018-12-04T10:51:11.084Z,99.99
2018-12-04T10:52:10.766Z,99.99
2018-12-04T10:53:11.003Z,99.99
2018-12-04T10:54:10.738Z,99.99
2018-12-04T10:55:10.997Z,99.99
2018-12-04T10:56:10.973Z,99.99
2018-12-04T10:57:12.092Z,99.99
2018-12-04T10:58:10.931Z,99.99
2018-12-04T10:59:10.662Z,99.99
2018-12-04T11:00:10.922Z,99.99
2018-12-04T11:01:10.902Z,99.99
2018-12-04T11:02:10.622Z,99.99
2018-12-04T11:03:10.612Z,99.99
2018-12-04T11:04:10.852Z,99.99
2018-12-04T11:05:10.844Z,99.99
2018-12-04T11:06:10.575Z,99.99
2018-12-04T11:07:10.817Z,99.99
2018-12-04T11:08:10.803Z,99.99
2018-12-04T11:09:10.801Z,99.99
2018-12-04T11:10:10.781Z,99.99
2018-12-04T11:11:10.785Z,99.99
2018-12-04T11:12:14.476Z,99.99
2018-12-04T11:13:10.742Z,99.99
2018-12-04T11:14:10.740Z,99.99
2018-12-04T11:15:10.780Z,99.99
2018-12-04T11:16:10.457Z,99.99
2018-12-04T11:17:10.711Z,99.99
2018-12-04T11:18:10.688Z,99.99
2018-12-04T11:19:10.426Z,99.99
2018-12-04T11:20:10.418Z,99.99
2018-12-04T11:21:10.655Z,99.99
2018-12-04T11:22:10.642Z,99.99
2018-12-04T11:23:10.376Z,99.99
2018-12-04T11:24:10.615Z,99.99
2018-12-04T11:25:10.612Z,99.99
2018-12-04T11:26:10.545Z,99.99
2018-12-04T11:27:10.332Z,99.99
2018-12-04T11:28:10.575Z,99.99
2018-12-04T11:29:10.563Z,99.99
2018-12-04T11:30:10.554Z,99.99
2018-12-04T11:31:10.284Z,99.99
2018-12-04T11:32:10.550Z,99.99
2018-12-04T11:33:11.273Z,99.99
2018-12-04T11:34:10.260Z,99.99
2018-12-04T11:35:10.499Z,99.99
2018-12-04T11:36:10.485Z,99.99
2018-12-04T11:37:10.473Z,99.99
2018-12-04T11:38:10.462Z,99.99
2018-12-04T11:39:10.450Z,99.99
2018-12-04T11:40:10.438Z,99.99
2018-12-04T11:41:10.428Z,99.99
2018-12-04T11:42:10.423Z,99.99
2018-12-04T11:43:10.419Z,99.99
2018-12-04T11:44:10.401Z,99.99
2018-12-04T11:45:10.411Z,99.99
2018-12-04T11:46:10.376Z,99.99
2018-12-04T11:47:10.431Z,99.99
2018-12-04T11:48:10.360Z,99.99
2018-12-04T11:49:10.406Z,99.99
2018-12-04T11:50:10.342Z,99.99
2018-12-04T11:51:10.330Z,99.99
2018-12-04T11:52:10.067Z,99.99
2018-12-04T11:53:10.343Z,99.99
2018-12-04T11:54:10.305Z,99.99
2018-12-04T11:55:10.305Z,99.99
2018-12-04T11:56:10.288Z,99.99
2018-12-04T11:57:10.285Z,99.99
2018-12-04T11:58:10.021Z,99.99
2018-12-04T11:59:10.265Z,99.99
2018-12-04T12:00:10.276Z,99.99
2018-12-04T12:01:10.256Z,99.99
2018-12-04T12:02:13.258Z,99.99
2018-12-04T12:03:10.248Z,99.99
2018-12-04T12:04:10.233Z,99.99
2018-12-04T12:05:09.966Z,99.99
2018-12-04T12:06:10.214Z,99.99
2018-12-04T12:07:10.205Z,99.99
2018-12-04T12:08:09.941Z,99.99
2018-12-04T12:09:10.190Z,99.99
2018-12-04T12:10:10.182Z,99.99
2018-12-04T12:11:10.172Z,99.99
2018-12-04T12:12:10.169Z,99.99
2018-12-04T12:13:09.903Z,99.99
2018-12-04T12:14:10.146Z,99.99
2018-12-04T12:15:10.137Z,99.99
2018-12-04T12:16:10.170Z,99.99
2018-12-04T12:17:10.119Z,99.99
2018-12-04T12:18:10.106Z,99.99
2018-12-04T12:19:10.105Z,99.99
2018-12-04T12:20:10.092Z,99.99
2018-12-04T12:21:09.825Z,99.99
2018-12-04T12:22:09.815Z,99.99
2018-12-04T12:23:10.062Z,99.99
2018-12-04T12:24:09.795Z,99.99
2018-12-04T12:25:10.087Z,99.99
2018-12-04T12:26:09.774Z,99.99
2018-12-04T12:27:09.764Z,99.99
2018-12-04T12:28:09.756Z,99.99
2018-12-04T12:29:09.998Z,99.99
2018-12-04T12:30:09.731Z,99.99
2018-12-04T12:31:09.977Z,99.99
2018-12-04T12:32:09.968Z,99.99
2018-12-04T12:33:10.074Z,99.99
2018-12-04T12:34:09.963Z,99.99
2018-12-04T12:35:09.936Z,99.99
2018-12-04T12:36:09.927Z,99.99
2018-12-04T12:37:09.658Z,99.99
2018-12-04T12:38:09.655Z,99.99
2018-12-04T12:39:09.640Z,99.99
2018-12-04T12:40:09.914Z,99.99
2018-12-04T12:41:09.870Z,99.99
2018-12-04T12:42:09.605Z,99.99
2018-12-04T12:43:09.594Z,99.99
2018-12-04T12:44:09.842Z,99.99
2018-12-04T12:45:09.829Z,99.99
2018-12-04T12:46:09.841Z,99.99
2018-12-04T12:47:09.820Z,99.99
2018-12-04T12:48:09.794Z,99.99
2018-12-04T12:49:09.793Z,99.99
2018-12-04T12:50:09.780Z,99.99
2018-12-04T12:51:09.513Z,99.99
2018-12-04T12:52:09.502Z,99.99
2018-12-04T12:53:09.948Z,99.99
2018-12-04T12:54:09.739Z,99.99